Disclaimer

Please do not use the information listed here in-flight or in-navigation, as they are not provided to us by the airports but are provided by volunteers, so they might be outdated.

Search


Regions


Airport information page

Radio informations:
Tower (TWR) - 122.1 MHz
Ground (GND) - 121.95 MHz

Airport informations:
Latitude: 40° 44' 06.10" N
Longitude: 030° 05' 00.01" E
Elevation: 182 feet - 55 meters
Operating hours: Remarks
Operating agency: Military-civil joint use airport
Timezone: UTC+2(+3DT) - Dates notified by NOTAM
Fuel: Aviation Gasoline (AVGAS), octane unknown.

Jet fuel avaiable but type is unknown.

Runway information:
09/27 - 9842 x 98 feet< - >3000 x 30 meters

Recent METARs:
LTBQ 211627Z 00000KT 4500 -RA BR FEW011 SCT020 BKN080 13/13 Q1012 BECMG 6000 RMK RWY09 VRB02KT
LTBQ 211650Z VRB02KT 6000 FEW011 SCT020 BKN080 13/13 Q1012 RERA NOSIG

Airport on the map: